Hilly, Louisiana
Current Conditions -  °F | °C
As of 7:15 AM on Friday 28 Nov 2014 (Local Time) from KRSN Reporting Station
Clear Clear  
Wind Chill: 29°   Ceiling: Unl
Heat Index: 35°   Visibility: 10mi
Dew Point: 33°   Wind: 6mph
Humidity: 94%   Direction: 160°SSE
Pressure: 30.42"   Gusts: NA
Location:  32.6988°N, 92.6981°W
Report Text: KRSN 281315Z AUTO 16005KT 10SM CLR 01/01 A3042 RMK AO2 T00140005
Loading
Personal Weather Stations






























Interactive Weather Map New forecast layout! Learn more

10-Day Weather Forecast

Advertisements
Track Severe Weather on mobile